Aviation Digital Data Service (ADDS)

Output produced by METARs form (1802 UTC 19 October 2017)
found at http://www.aviationweather.gov/adds/metars/
 
EGYP 191750Z 22018KT 9999 7000W -SHSN FEW012CB BKN028 04/M00 Q0998 WHT TEMPO 1000 SHSN SCT002 AMB
TAF EGYP 191619Z 1918/2012 23015KT 9999 SCT040 
     TEMPO 1918/2012 3000 SHGS BKN012CB 
     PROB30 
     TEMPO 1918/2012 23020G30KT 1000 SHSN SCT002